sensor_id;sensor_type;location;lat;lon;timestamp;P1;durP1;ratioP1;P2;durP2;ratioP2
11524;SDS011;5819;49.648;8.330;2023-04-25T00:00:24;4.00;;;3.70;;
11524;SDS011;5819;49.648;8.330;2023-04-25T00:02:52;3.90;;;3.45;;
11524;SDS011;5819;49.648;8.330;2023-04-25T00:05:22;3.90;;;3.60;;
11524;SDS011;5819;49.648;8.330;2023-04-25T00:07:52;4.43;;;3.15;;
11524;SDS011;5819;49.648;8.330;2023-04-25T00:10:20;4.43;;;4.03;;
11524;SDS011;5819;49.648;8.330;2023-04-25T00:12:48;4.72;;;3.83;;
11524;SDS011;5819;49.648;8.330;2023-04-25T00:15:16;4.50;;;4.03;;
11524;SDS011;5819;49.648;8.330;2023-04-25T00:17:44;4.38;;;3.97;;
11524;SDS011;5819;49.648;8.330;2023-04-25T00:20:12;4.57;;;4.07;;
11524;SDS011;5819;49.648;8.330;2023-04-25T00:22:40;4.15;;;3.72;;
11524;SDS011;5819;49.648;8.330;2023-04-25T00:25:09;3.60;;;3.30;;
11524;SDS011;5819;49.648;8.330;2023-04-25T00:27:37;3.95;;;3.65;;
11524;SDS011;5819;49.648;8.330;2023-04-25T00:30:06;3.75;;;3.45;;
11524;SDS011;5819;49.648;8.330;2023-04-25T00:32:35;4.22;;;3.83;;
11524;SDS011;5819;49.648;8.330;2023-04-25T00:35:03;3.92;;;3.50;;
11524;SDS011;5819;49.648;8.330;2023-04-25T00:37:32;4.38;;;3.97;;
11524;SDS011;5819;49.648;8.330;2023-04-25T00:39:59;4.35;;;3.95;;
11524;SDS011;5819;49.648;8.330;2023-04-25T00:42:29;4.45;;;4.05;;
11524;SDS011;5819;49.648;8.330;2023-04-25T00:44:58;4.97;;;4.57;;
11524;SDS011;5819;49.648;8.330;2023-04-25T00:47:26;8.23;;;5.38;;
11524;SDS011;5819;49.648;8.330;2023-04-25T00:49:56;6.07;;;5.47;;
11524;SDS011;5819;49.648;8.330;2023-04-25T00:52:23;6.63;;;6.03;;
11524;SDS011;5819;49.648;8.330;2023-04-25T00:54:52;6.50;;;5.90;;
11524;SDS011;5819;49.648;8.330;2023-04-25T00:57:20;9.10;;;6.93;;
11524;SDS011;5819;49.648;8.330;2023-04-25T00:59:49;8.63;;;7.05;;
11524;SDS011;5819;49.648;8.330;2023-04-25T01:02:19;9.02;;;6.32;;
11524;SDS011;5819;49.648;8.330;2023-04-25T01:04:48;8.05;;;7.25;;
11524;SDS011;5819;49.648;8.330;2023-04-25T01:07:16;7.30;;;6.60;;
11524;SDS011;5819;49.648;8.330;2023-04-25T01:09:45;8.40;;;7.60;;
11524;SDS011;5819;49.648;8.330;2023-04-25T01:12:13;7.85;;;6.72;;
11524;SDS011;5819;49.648;8.330;2023-04-25T01:14:42;8.50;;;6.78;;
11524;SDS011;5819;49.648;8.330;2023-04-25T01:17:12;7.90;;;7.10;;
11524;SDS011;5819;49.648;8.330;2023-04-25T01:19:41;8.88;;;7.97;;
11524;SDS011;5819;49.648;8.330;2023-04-25T01:22:10;8.88;;;7.97;;
11524;SDS011;5819;49.648;8.330;2023-04-25T01:24:39;8.75;;;7.88;;
11524;SDS011;5819;49.648;8.330;2023-04-25T01:27:07;9.40;;;7.70;;
11524;SDS011;5819;49.648;8.330;2023-04-25T01:29:35;9.95;;;8.95;;
11524;SDS011;5819;49.648;8.330;2023-04-25T01:32:04;10.32;;;9.23;;
11524;SDS011;5819;49.648;8.330;2023-04-25T01:34:33;9.60;;;8.70;;
11524;SDS011;5819;49.648;8.330;2023-04-25T01:37:01;10.23;;;8.30;;
11524;SDS011;5819;49.648;8.330;2023-04-25T01:39:34;11.25;;;8.85;;
11524;SDS011;5819;49.648;8.330;2023-04-25T01:42:04;9.00;;;8.10;;
11524;SDS011;5819;49.648;8.330;2023-04-25T01:44:33;10.30;;;8.55;;
11524;SDS011;5819;49.648;8.330;2023-04-25T01:47:01;9.35;;;8.45;;
11524;SDS011;5819;49.648;8.330;2023-04-25T01:49:32;10.25;;;8.23;;
11524;SDS011;5819;49.648;8.330;2023-04-25T01:52:00;8.77;;;7.88;;
11524;SDS011;5819;49.648;8.330;2023-04-25T01:54:28;7.68;;;6.90;;
11524;SDS011;5819;49.648;8.330;2023-04-25T01:56:58;7.45;;;6.70;;
11524;SDS011;5819;49.648;8.330;2023-04-25T01:59:26;7.68;;;6.97;;
11524;SDS011;5819;49.648;8.330;2023-04-25T02:02:12;8.32;;;7.07;;
11524;SDS011;5819;49.648;8.330;2023-04-25T02:04:40;7.63;;;6.82;;
11524;SDS011;5819;49.648;8.330;2023-04-25T02:07:08;8.10;;;7.30;;
11524;SDS011;5819;49.648;8.330;2023-04-25T02:09:47;6.40;;;5.80;;
11524;SDS011;5819;49.648;8.330;2023-04-25T02:12:18;6.97;;;6.28;;
11524;SDS011;5819;49.648;8.330;2023-04-25T02:15:05;8.35;;;6.40;;
11524;SDS011;5819;49.648;8.330;2023-04-25T02:17:41;6.70;;;6.00;;
11524;SDS011;5819;49.648;8.330;2023-04-25T02:20:11;6.65;;;6.05;;
11524;SDS011;5819;49.648;8.330;2023-04-25T02:22:39;7.07;;;6.47;;
11524;SDS011;5819;49.648;8.330;2023-04-25T02:25:07;7.07;;;6.38;;
11524;SDS011;5819;49.648;8.330;2023-04-25T02:27:37;7.07;;;6.38;;
11524;SDS011;5819;49.648;8.330;2023-04-25T02:30:07;7.18;;;6.47;;
11524;SDS011;5819;49.648;8.330;2023-04-25T02:32:35;7.20;;;6.43;;
11524;SDS011;5819;49.648;8.330;2023-04-25T02:35:04;7.47;;;6.63;;
11524;SDS011;5819;49.648;8.330;2023-04-25T02:37:32;8.25;;;6.30;;
11524;SDS011;5819;49.648;8.330;2023-04-25T02:40:01;7.63;;;6.82;;
11524;SDS011;5819;49.648;8.330;2023-04-25T02:42:30;8.02;;;7.22;;
11524;SDS011;5819;49.648;8.330;2023-04-25T02:45:00;10.13;;;8.25;;
11524;SDS011;5819;49.648;8.330;2023-04-25T02:47:28;8.93;;;8.02;;
11524;SDS011;5819;49.648;8.330;2023-04-25T02:49:57;9.77;;;8.82;;
11524;SDS011;5819;49.648;8.330;2023-04-25T02:52:25;9.25;;;8.35;;
11524;SDS011;5819;49.648;8.330;2023-04-25T02:55:02;10.55;;;9.10;;
11524;SDS011;5819;49.648;8.330;2023-04-25T02:57:31;10.95;;;9.85;;
11524;SDS011;5819;49.648;8.330;2023-04-25T03:00:03;10.65;;;9.55;;
11524;SDS011;5819;49.648;8.330;2023-04-25T03:02:32;12.90;;;10.65;;
11524;SDS011;5819;49.648;8.330;2023-04-25T03:05:00;11.82;;;10.40;;
11524;SDS011;5819;49.648;8.330;2023-04-25T03:07:30;11.60;;;9.55;;
11524;SDS011;5819;49.648;8.330;2023-04-25T03:09:58;10.05;;;8.98;;
11524;SDS011;5819;49.648;8.330;2023-04-25T03:12:29;8.68;;;7.63;;
11524;SDS011;5819;49.648;8.330;2023-04-25T03:14:57;10.52;;;8.00;;
11524;SDS011;5819;49.648;8.330;2023-04-25T03:17:26;9.55;;;8.60;;
11524;SDS011;5819;49.648;8.330;2023-04-25T03:19:54;9.18;;;8.27;;
11524;SDS011;5819;49.648;8.330;2023-04-25T03:22:22;9.45;;;8.48;;
11524;SDS011;5819;49.648;8.330;2023-04-25T03:24:50;9.32;;;8.43;;
11524;SDS011;5819;49.648;8.330;2023-04-25T03:27:18;9.15;;;8.23;;
11524;SDS011;5819;49.648;8.330;2023-04-25T03:29:46;10.40;;;9.30;;
11524;SDS011;5819;49.648;8.330;2023-04-25T03:32:14;10.73;;;8.70;;
11524;SDS011;5819;49.648;8.330;2023-04-25T03:34:43;9.70;;;8.70;;
11524;SDS011;5819;49.648;8.330;2023-04-25T03:37:11;9.50;;;8.27;;
11524;SDS011;5819;49.648;8.330;2023-04-25T03:39:39;9.55;;;8.52;;
11524;SDS011;5819;49.648;8.330;2023-04-25T03:42:07;10.98;;;9.15;;
11524;SDS011;5819;49.648;8.330;2023-04-25T03:44:35;9.32;;;8.32;;
11524;SDS011;5819;49.648;8.330;2023-04-25T03:47:03;10.88;;;8.52;;
11524;SDS011;5819;49.648;8.330;2023-04-25T03:49:32;9.02;;;8.05;;
11524;SDS011;5819;49.648;8.330;2023-04-25T03:52:03;9.50;;;7.90;;
11524;SDS011;5819;49.648;8.330;2023-04-25T03:54:37;8.43;;;7.63;;
11524;SDS011;5819;49.648;8.330;2023-04-25T03:57:09;9.88;;;8.00;;
11524;SDS011;5819;49.648;8.330;2023-04-25T03:59:38;8.65;;;7.75;;
11524;SDS011;5819;49.648;8.330;2023-04-25T04:02:09;8.65;;;7.75;;
11524;SDS011;5819;49.648;8.330;2023-04-25T04:04:38;9.48;;;8.35;;
11524;SDS011;5819;49.648;8.330;2023-04-25T04:07:08;8.48;;;7.63;;
11524;SDS011;5819;49.648;8.330;2023-04-25T04:09:39;9.27;;;8.38;;
11524;SDS011;5819;49.648;8.330;2023-04-25T04:12:13;10.05;;;8.55;;
11524;SDS011;5819;49.648;8.330;2023-04-25T04:14:41;8.30;;;7.50;;
11524;SDS011;5819;49.648;8.330;2023-04-25T04:17:09;8.95;;;7.60;;
11524;SDS011;5819;49.648;8.330;2023-04-25T04:19:37;8.63;;;7.72;;
11524;SDS011;5819;49.648;8.330;2023-04-25T04:22:11;8.95;;;8.02;;
11524;SDS011;5819;49.648;8.330;2023-04-25T04:24:39;8.50;;;7.70;;
11524;SDS011;5819;49.648;8.330;2023-04-25T04:27:12;8.43;;;7.63;;
11524;SDS011;5819;49.648;8.330;2023-04-25T04:30:04;8.05;;;7.25;;
11524;SDS011;5819;49.648;8.330;2023-04-25T04:32:37;7.97;;;7.18;;
11524;SDS011;5819;49.648;8.330;2023-04-25T04:35:06;8.00;;;7.18;;
11524;SDS011;5819;49.648;8.330;2023-04-25T04:37:37;8.55;;;7.75;;
11524;SDS011;5819;49.648;8.330;2023-04-25T04:40:11;8.55;;;7.75;;
11524;SDS011;5819;49.648;8.330;2023-04-25T04:42:45;9.63;;;7.68;;
11524;SDS011;5819;49.648;8.330;2023-04-25T04:45:46;9.35;;;8.00;;
11524;SDS011;5819;49.648;8.330;2023-04-25T04:48:23;9.43;;;8.23;;
11524;SDS011;5819;49.648;8.330;2023-04-25T04:50:59;9.43;;;8.50;;
11524;SDS011;5819;49.648;8.330;2023-04-25T04:53:38;8.38;;;7.47;;
11524;SDS011;5819;49.648;8.330;2023-04-25T04:56:12;9.93;;;8.45;;
11524;SDS011;5819;49.648;8.330;2023-04-25T04:58:52;8.93;;;8.02;;
11524;SDS011;5819;49.648;8.330;2023-04-25T05:01:38;8.45;;;7.38;;
11524;SDS011;5819;49.648;8.330;2023-04-25T05:04:39;8.45;;;7.53;;
11524;SDS011;5819;49.648;8.330;2023-04-25T05:07:27;8.50;;;7.60;;
11524;SDS011;5819;49.648;8.330;2023-04-25T05:10:10;9.32;;;8.20;;
11524;SDS011;5819;49.648;8.330;2023-04-25T05:13:01;8.65;;;7.85;;
11524;SDS011;5819;49.648;8.330;2023-04-25T05:15:48;9.65;;;7.32;;
11524;SDS011;5819;49.648;8.330;2023-04-25T05:18:39;8.65;;;7.45;;
11524;SDS011;5819;49.648;8.330;2023-04-25T05:21:21;11.02;;;8.00;;
11524;SDS011;5819;49.648;8.330;2023-04-25T05:24:08;9.52;;;8.10;;
11524;SDS011;5819;49.648;8.330;2023-04-25T05:26:38;10.05;;;8.48;;
11524;SDS011;5819;49.648;8.330;2023-04-25T05:29:26;8.77;;;7.88;;
11524;SDS011;5819;49.648;8.330;2023-04-25T05:32:14;9.52;;;7.80;;
11524;SDS011;5819;49.648;8.330;2023-04-25T05:34:41;10.65;;;8.63;;
11524;SDS011;5819;49.648;8.330;2023-04-25T05:37:19;9.60;;;8.23;;
11524;SDS011;5819;49.648;8.330;2023-04-25T05:39:54;18.83;;;10.13;;
11524;SDS011;5819;49.648;8.330;2023-04-25T05:42:31;23.02;;;10.68;;
11524;SDS011;5819;49.648;8.330;2023-04-25T05:45:17;11.77;;;9.23;;
11524;SDS011;5819;49.648;8.330;2023-04-25T05:48:07;12.48;;;9.65;;
11524;SDS011;5819;49.648;8.330;2023-04-25T05:50:43;11.10;;;9.90;;
11524;SDS011;5819;49.648;8.330;2023-04-25T05:53:22;11.23;;;9.90;;
11524;SDS011;5819;49.648;8.330;2023-04-25T05:55:58;12.57;;;10.25;;
11524;SDS011;5819;49.648;8.330;2023-04-25T05:58:29;11.13;;;10.02;;
11524;SDS011;5819;49.648;8.330;2023-04-25T06:00:58;12.68;;;10.77;;
11524;SDS011;5819;49.648;8.330;2023-04-25T06:03:28;12.10;;;10.18;;
11524;SDS011;5819;49.648;8.330;2023-04-25T06:05:57;13.70;;;11.70;;
11524;SDS011;5819;49.648;8.330;2023-04-25T06:08:26;13.52;;;11.38;;
11524;SDS011;5819;49.648;8.330;2023-04-25T06:10:53;16.65;;;12.43;;
11524;SDS011;5819;49.648;8.330;2023-04-25T06:13:22;16.45;;;11.82;;
11524;SDS011;5819;49.648;8.330;2023-04-25T06:15:51;15.85;;;11.48;;
11524;SDS011;5819;49.648;8.330;2023-04-25T06:18:19;19.63;;;11.07;;
11524;SDS011;5819;49.648;8.330;2023-04-25T06:20:47;13.98;;;9.13;;
11524;SDS011;5819;49.648;8.330;2023-04-25T06:23:17;20.27;;;8.95;;
11524;SDS011;5819;49.648;8.330;2023-04-25T06:25:50;19.70;;;8.43;;
11524;SDS011;5819;49.648;8.330;2023-04-25T06:28:19;16.48;;;7.47;;
11524;SDS011;5819;49.648;8.330;2023-04-25T06:30:49;11.52;;;6.55;;
11524;SDS011;5819;49.648;8.330;2023-04-25T06:33:19;18.58;;;7.38;;
11524;SDS011;5819;49.648;8.330;2023-04-25T06:35:48;17.73;;;7.35;;
11524;SDS011;5819;49.648;8.330;2023-04-25T06:38:21;14.60;;;7.28;;
11524;SDS011;5819;49.648;8.330;2023-04-25T06:40:51;15.20;;;7.95;;
11524;SDS011;5819;49.648;8.330;2023-04-25T06:43:19;16.67;;;8.43;;
11524;SDS011;5819;49.648;8.330;2023-04-25T06:46:03;18.80;;;8.75;;
11524;SDS011;5819;49.648;8.330;2023-04-25T06:48:38;17.75;;;8.80;;
11524;SDS011;5819;49.648;8.330;2023-04-25T06:51:05;16.88;;;9.00;;
11524;SDS011;5819;49.648;8.330;2023-04-25T06:53:35;15.70;;;7.88;;
11524;SDS011;5819;49.648;8.330;2023-04-25T06:56:06;12.05;;;7.18;;
11524;SDS011;5819;49.648;8.330;2023-04-25T06:58:44;11.80;;;7.13;;
11524;SDS011;5819;49.648;8.330;2023-04-25T07:01:20;12.30;;;7.68;;
11524;SDS011;5819;49.648;8.330;2023-04-25T07:03:48;16.27;;;8.45;;
11524;SDS011;5819;49.648;8.330;2023-04-25T07:06:17;19.50;;;9.43;;
11524;SDS011;5819;49.648;8.330;2023-04-25T07:08:46;16.80;;;10.07;;
11524;SDS011;5819;49.648;8.330;2023-04-25T07:11:14;16.70;;;9.85;;
11524;SDS011;5819;49.648;8.330;2023-04-25T07:13:43;17.30;;;9.35;;
11524;SDS011;5819;49.648;8.330;2023-04-25T07:16:11;14.15;;;9.70;;
11524;SDS011;5819;49.648;8.330;2023-04-25T07:18:41;27.33;;;9.65;;
11524;SDS011;5819;49.648;8.330;2023-04-25T07:21:09;17.40;;;9.55;;
11524;SDS011;5819;49.648;8.330;2023-04-25T07:23:37;19.65;;;9.95;;
11524;SDS011;5819;49.648;8.330;2023-04-25T07:26:10;17.05;;;10.00;;
11524;SDS011;5819;49.648;8.330;2023-04-25T07:28:54;14.45;;;10.27;;
11524;SDS011;5819;49.648;8.330;2023-04-25T07:31:24;20.00;;;9.85;;
11524;SDS011;5819;49.648;8.330;2023-04-25T07:33:53;14.88;;;9.25;;
11524;SDS011;5819;49.648;8.330;2023-04-25T07:36:21;12.15;;;8.43;;
11524;SDS011;5819;49.648;8.330;2023-04-25T07:38:49;14.07;;;7.95;;
11524;SDS011;5819;49.648;8.330;2023-04-25T07:41:17;14.50;;;8.52;;
11524;SDS011;5819;49.648;8.330;2023-04-25T07:43:46;15.10;;;7.57;;
11524;SDS011;5819;49.648;8.330;2023-04-25T07:46:14;15.40;;;7.95;;
11524;SDS011;5819;49.648;8.330;2023-04-25T07:48:42;16.60;;;8.05;;
11524;SDS011;5819;49.648;8.330;2023-04-25T07:51:11;11.70;;;7.53;;
11524;SDS011;5819;49.648;8.330;2023-04-25T07:53:39;15.13;;;7.97;;
11524;SDS011;5819;49.648;8.330;2023-04-25T07:56:11;12.07;;;7.20;;
11524;SDS011;5819;49.648;8.330;2023-04-25T07:58:41;10.73;;;7.38;;
11524;SDS011;5819;49.648;8.330;2023-04-25T08:01:12;12.55;;;7.80;;
11524;SDS011;5819;49.648;8.330;2023-04-25T08:03:48;13.55;;;7.40;;
11524;SDS011;5819;49.648;8.330;2023-04-25T08:06:25;14.98;;;8.00;;
11524;SDS011;5819;49.648;8.330;2023-04-25T08:09:03;18.83;;;8.55;;
11524;SDS011;5819;49.648;8.330;2023-04-25T08:11:36;13.25;;;8.32;;
11524;SDS011;5819;49.648;8.330;2023-04-25T08:14:06;14.75;;;7.80;;
11524;SDS011;5819;49.648;8.330;2023-04-25T08:16:36;16.20;;;7.05;;
11524;SDS011;5819;49.648;8.330;2023-04-25T08:19:04;11.38;;;6.65;;
11524;SDS011;5819;49.648;8.330;2023-04-25T08:21:34;13.93;;;6.82;;
11524;SDS011;5819;49.648;8.330;2023-04-25T08:24:06;10.77;;;5.57;;
11524;SDS011;5819;49.648;8.330;2023-04-25T08:26:37;10.93;;;6.22;;
11524;SDS011;5819;49.648;8.330;2023-04-25T08:29:06;11.70;;;5.57;;
11524;SDS011;5819;49.648;8.330;2023-04-25T08:31:38;11.40;;;6.60;;
11524;SDS011;5819;49.648;8.330;2023-04-25T08:34:07;13.52;;;6.03;;
11524;SDS011;5819;49.648;8.330;2023-04-25T08:36:46;12.18;;;5.72;;
11524;SDS011;5819;49.648;8.330;2023-04-25T08:39:36;16.52;;;6.30;;
11524;SDS011;5819;49.648;8.330;2023-04-25T08:42:23;10.63;;;5.38;;
11524;SDS011;5819;49.648;8.330;2023-04-25T08:44:52;9.27;;;5.90;;
11524;SDS011;5819;49.648;8.330;2023-04-25T08:47:25;14.35;;;5.97;;
11524;SDS011;5819;49.648;8.330;2023-04-25T08:49:56;17.20;;;6.22;;
11524;SDS011;5819;49.648;8.330;2023-04-25T08:52:30;10.38;;;6.22;;
11524;SDS011;5819;49.648;8.330;2023-04-25T08:55:03;13.55;;;6.20;;
11524;SDS011;5819;49.648;8.330;2023-04-25T08:57:34;8.90;;;5.88;;
11524;SDS011;5819;49.648;8.330;2023-04-25T09:00:03;12.90;;;5.97;;
11524;SDS011;5819;49.648;8.330;2023-04-25T09:02:35;12.25;;;6.30;;
11524;SDS011;5819;49.648;8.330;2023-04-25T09:05:03;11.38;;;6.13;;
11524;SDS011;5819;49.648;8.330;2023-04-25T09:07:34;13.02;;;5.95;;
11524;SDS011;5819;49.648;8.330;2023-04-25T09:10:03;9.48;;;5.65;;
11524;SDS011;5819;49.648;8.330;2023-04-25T09:12:35;8.82;;;5.85;;
11524;SDS011;5819;49.648;8.330;2023-04-25T09:15:05;9.07;;;5.82;;
11524;SDS011;5819;49.648;8.330;2023-04-25T09:17:55;10.00;;;6.53;;
11524;SDS011;5819;49.648;8.330;2023-04-25T09:20:27;8.77;;;5.32;;
11524;SDS011;5819;49.648;8.330;2023-04-25T09:23:04;9.75;;;5.50;;
11524;SDS011;5819;49.648;8.330;2023-04-25T09:25:36;11.55;;;5.25;;
11524;SDS011;5819;49.648;8.330;2023-04-25T09:28:08;10.65;;;6.47;;
11524;SDS011;5819;49.648;8.330;2023-04-25T09:30:37;8.85;;;4.45;;
11524;SDS011;5819;49.648;8.330;2023-04-25T09:33:18;9.35;;;4.00;;
11524;SDS011;5819;49.648;8.330;2023-04-25T09:35:49;7.80;;;3.75;;
11524;SDS011;5819;49.648;8.330;2023-04-25T09:38:41;7.05;;;3.72;;
11524;SDS011;5819;49.648;8.330;2023-04-25T09:41:26;4.60;;;3.35;;
11524;SDS011;5819;49.648;8.330;2023-04-25T09:43:58;4.72;;;3.53;;
11524;SDS011;5819;49.648;8.330;2023-04-25T09:46:34;5.15;;;3.28;;
11524;SDS011;5819;49.648;8.330;2023-04-25T09:49:30;6.78;;;2.80;;
11524;SDS011;5819;49.648;8.330;2023-04-25T09:52:04;5.82;;;3.22;;
11524;SDS011;5819;49.648;8.330;2023-04-25T09:54:43;4.75;;;2.92;;
11524;SDS011;5819;49.648;8.330;2023-04-25T09:57:14;5.68;;;3.38;;
11524;SDS011;5819;49.648;8.330;2023-04-25T09:59:46;5.28;;;3.17;;
11524;SDS011;5819;49.648;8.330;2023-04-25T10:02:16;7.68;;;3.55;;
11524;SDS011;5819;49.648;8.330;2023-04-25T10:04:48;4.85;;;3.50;;
11524;SDS011;5819;49.648;8.330;2023-04-25T10:07:33;6.15;;;3.78;;
11524;SDS011;5819;49.648;8.330;2023-04-25T10:10:09;7.95;;;4.10;;
11524;SDS011;5819;49.648;8.330;2023-04-25T10:12:40;4.40;;;3.17;;
11524;SDS011;5819;49.648;8.330;2023-04-25T10:15:10;7.70;;;4.10;;
11524;SDS011;5819;49.648;8.330;2023-04-25T10:17:39;6.03;;;3.58;;
11524;SDS011;5819;49.648;8.330;2023-04-25T10:20:08;6.03;;;3.35;;
11524;SDS011;5819;49.648;8.330;2023-04-25T10:22:38;4.95;;;2.88;;
11524;SDS011;5819;49.648;8.330;2023-04-25T10:25:10;5.70;;;3.67;;
11524;SDS011;5819;49.648;8.330;2023-04-25T10:27:39;6.35;;;3.70;;
11524;SDS011;5819;49.648;8.330;2023-04-25T10:30:07;7.63;;;4.10;;
11524;SDS011;5819;49.648;8.330;2023-04-25T10:32:39;6.72;;;4.10;;
11524;SDS011;5819;49.648;8.330;2023-04-25T10:35:10;6.20;;;3.90;;
11524;SDS011;5819;49.648;8.330;2023-04-25T10:37:56;6.35;;;4.10;;
11524;SDS011;5819;49.648;8.330;2023-04-25T10:40:27;8.25;;;4.43;;
11524;SDS011;5819;49.648;8.330;2023-04-25T10:42:54;9.35;;;4.20;;
11524;SDS011;5819;49.648;8.330;2023-04-25T10:45:23;7.07;;;4.15;;
11524;SDS011;5819;49.648;8.330;2023-04-25T10:47:50;10.68;;;4.40;;
11524;SDS011;5819;49.648;8.330;2023-04-25T10:50:19;7.43;;;4.90;;
11524;SDS011;5819;49.648;8.330;2023-04-25T10:52:46;6.63;;;4.63;;
11524;SDS011;5819;49.648;8.330;2023-04-25T10:55:14;7.38;;;4.30;;
11524;SDS011;5819;49.648;8.330;2023-04-25T10:57:44;5.32;;;3.67;;
11524;SDS011;5819;49.648;8.330;2023-04-25T11:00:15;6.45;;;3.67;;
11524;SDS011;5819;49.648;8.330;2023-04-25T11:02:45;6.32;;;4.10;;
11524;SDS011;5819;49.648;8.330;2023-04-25T11:05:23;7.20;;;4.15;;
11524;SDS011;5819;49.648;8.330;2023-04-25T11:07:58;6.70;;;4.90;;
11524;SDS011;5819;49.648;8.330;2023-04-25T11:10:33;7.20;;;4.70;;
11524;SDS011;5819;49.648;8.330;2023-04-25T11:13:04;7.60;;;4.43;;
11524;SDS011;5819;49.648;8.330;2023-04-25T11:15:31;4.43;;;3.90;;
11524;SDS011;5819;49.648;8.330;2023-04-25T11:17:59;6.53;;;4.63;;
11524;SDS011;5819;49.648;8.330;2023-04-25T11:20:28;5.55;;;4.40;;
11524;SDS011;5819;49.648;8.330;2023-04-25T11:22:57;8.90;;;4.40;;
11524;SDS011;5819;49.648;8.330;2023-04-25T11:25:25;6.63;;;3.90;;
11524;SDS011;5819;49.648;8.330;2023-04-25T11:27:54;9.55;;;4.78;;
11524;SDS011;5819;49.648;8.330;2023-04-25T11:30:25;8.32;;;4.65;;
11524;SDS011;5819;49.648;8.330;2023-04-25T11:32:53;10.07;;;5.03;;
11524;SDS011;5819;49.648;8.330;2023-04-25T11:35:21;7.72;;;4.85;;
11524;SDS011;5819;49.648;8.330;2023-04-25T11:37:51;8.25;;;4.50;;
11524;SDS011;5819;49.648;8.330;2023-04-25T11:40:19;6.13;;;5.10;;
11524;SDS011;5819;49.648;8.330;2023-04-25T11:42:48;10.98;;;5.38;;
11524;SDS011;5819;49.648;8.330;2023-04-25T11:45:20;8.07;;;5.30;;
11524;SDS011;5819;49.648;8.330;2023-04-25T11:47:51;10.05;;;5.45;;
11524;SDS011;5819;49.648;8.330;2023-04-25T11:50:19;8.27;;;5.32;;
11524;SDS011;5819;49.648;8.330;2023-04-25T11:52:48;6.72;;;5.60;;
11524;SDS011;5819;49.648;8.330;2023-04-25T11:55:17;7.60;;;5.38;;
11524;SDS011;5819;49.648;8.330;2023-04-25T11:57:46;9.93;;;5.60;;
11524;SDS011;5819;49.648;8.330;2023-04-25T12:00:17;8.77;;;5.18;;
11524;SDS011;5819;49.648;8.330;2023-04-25T12:02:47;9.50;;;5.53;;
11524;SDS011;5819;49.648;8.330;2023-04-25T12:05:20;7.53;;;5.35;;
11524;SDS011;5819;49.648;8.330;2023-04-25T12:07:53;10.50;;;5.65;;
11524;SDS011;5819;49.648;8.330;2023-04-25T12:10:21;7.38;;;5.30;;
11524;SDS011;5819;49.648;8.330;2023-04-25T12:12:52;7.43;;;5.38;;
11524;SDS011;5819;49.648;8.330;2023-04-25T12:15:23;10.18;;;5.45;;
11524;SDS011;5819;49.648;8.330;2023-04-25T12:17:53;9.63;;;5.82;;
11524;SDS011;5819;49.648;8.330;2023-04-25T12:20:24;10.18;;;5.68;;
11524;SDS011;5819;49.648;8.330;2023-04-25T12:22:53;9.57;;;5.53;;
11524;SDS011;5819;49.648;8.330;2023-04-25T12:25:34;9.18;;;5.53;;
11524;SDS011;5819;49.648;8.330;2023-04-25T12:28:09;9.15;;;6.53;;
11524;SDS011;5819;49.648;8.330;2023-04-25T12:33:26;22.35;;;6.75;;
11524;SDS011;5819;49.648;8.330;2023-04-25T12:35:56;21.90;;;6.35;;
11524;SDS011;5819;49.648;8.330;2023-04-25T12:38:25;8.98;;;5.38;;
11524;SDS011;5819;49.648;8.330;2023-04-25T12:40:55;11.80;;;5.00;;
11524;SDS011;5819;49.648;8.330;2023-04-25T12:43:23;10.48;;;5.60;;
11524;SDS011;5819;49.648;8.330;2023-04-25T12:45:52;10.00;;;4.60;;
11524;SDS011;5819;49.648;8.330;2023-04-25T12:48:21;6.78;;;4.40;;
11524;SDS011;5819;49.648;8.330;2023-04-25T12:50:49;8.35;;;4.90;;
11524;SDS011;5819;49.648;8.330;2023-04-25T12:53:20;11.15;;;4.68;;
11524;SDS011;5819;49.648;8.330;2023-04-25T12:55:48;7.68;;;4.65;;
11524;SDS011;5819;49.648;8.330;2023-04-25T12:58:17;8.15;;;4.47;;
11524;SDS011;5819;49.648;8.330;2023-04-25T13:00:46;10.00;;;4.68;;
11524;SDS011;5819;49.648;8.330;2023-04-25T13:03:14;12.48;;;5.63;;
11524;SDS011;5819;49.648;8.330;2023-04-25T13:05:42;8.25;;;4.70;;
11524;SDS011;5819;49.648;8.330;2023-04-25T13:08:10;11.18;;;4.90;;
11524;SDS011;5819;49.648;8.330;2023-04-25T13:10:40;8.40;;;4.20;;
11524;SDS011;5819;49.648;8.330;2023-04-25T13:13:08;11.45;;;4.57;;
11524;SDS011;5819;49.648;8.330;2023-04-25T13:15:36;9.65;;;4.53;;
11524;SDS011;5819;49.648;8.330;2023-04-25T13:18:04;14.35;;;5.00;;
11524;SDS011;5819;49.648;8.330;2023-04-25T13:20:33;10.85;;;4.65;;
11524;SDS011;5819;49.648;8.330;2023-04-25T13:23:01;8.88;;;4.20;;
11524;SDS011;5819;49.648;8.330;2023-04-25T13:25:29;8.27;;;4.20;;
11524;SDS011;5819;49.648;8.330;2023-04-25T13:27:58;12.80;;;4.80;;
11524;SDS011;5819;49.648;8.330;2023-04-25T13:30:26;8.20;;;4.25;;
11524;SDS011;5819;49.648;8.330;2023-04-25T13:32:54;6.32;;;4.22;;
11524;SDS011;5819;49.648;8.330;2023-04-25T13:35:23;7.88;;;4.75;;
11524;SDS011;5819;49.648;8.330;2023-04-25T13:37:51;7.00;;;4.45;;
11524;SDS011;5819;49.648;8.330;2023-04-25T13:40:19;10.13;;;5.00;;
11524;SDS011;5819;49.648;8.330;2023-04-25T13:42:51;7.45;;;4.78;;
11524;SDS011;5819;49.648;8.330;2023-04-25T13:45:20;7.30;;;4.38;;
11524;SDS011;5819;49.648;8.330;2023-04-25T13:47:48;8.18;;;4.30;;
11524;SDS011;5819;49.648;8.330;2023-04-25T13:50:16;8.13;;;4.60;;
11524;SDS011;5819;49.648;8.330;2023-04-25T13:52:44;7.78;;;4.60;;
11524;SDS011;5819;49.648;8.330;2023-04-25T13:55:12;8.13;;;4.72;;
11524;SDS011;5819;49.648;8.330;2023-04-25T13:57:40;6.35;;;4.30;;
11524;SDS011;5819;49.648;8.330;2023-04-25T14:00:08;7.75;;;4.90;;
11524;SDS011;5819;49.648;8.330;2023-04-25T14:02:38;9.80;;;4.45;;
11524;SDS011;5819;49.648;8.330;2023-04-25T14:05:06;9.27;;;5.38;;
11524;SDS011;5819;49.648;8.330;2023-04-25T14:07:36;9.70;;;4.43;;
11524;SDS011;5819;49.648;8.330;2023-04-25T14:10:04;11.30;;;4.50;;
11524;SDS011;5819;49.648;8.330;2023-04-25T14:12:33;13.70;;;4.40;;
11524;SDS011;5819;49.648;8.330;2023-04-25T14:15:01;12.32;;;4.22;;
11524;SDS011;5819;49.648;8.330;2023-04-25T14:17:29;9.25;;;4.80;;
11524;SDS011;5819;49.648;8.330;2023-04-25T14:19:59;12.32;;;5.40;;
11524;SDS011;5819;49.648;8.330;2023-04-25T14:22:26;10.68;;;4.63;;
11524;SDS011;5819;49.648;8.330;2023-04-25T14:24:54;10.32;;;4.38;;
11524;SDS011;5819;49.648;8.330;2023-04-25T14:27:22;8.88;;;4.07;;
11524;SDS011;5819;49.648;8.330;2023-04-25T14:29:50;7.13;;;3.80;;
11524;SDS011;5819;49.648;8.330;2023-04-25T14:32:18;6.18;;;3.60;;
11524;SDS011;5819;49.648;8.330;2023-04-25T14:34:46;7.35;;;4.05;;
11524;SDS011;5819;49.648;8.330;2023-04-25T14:37:16;7.85;;;3.42;;
11524;SDS011;5819;49.648;8.330;2023-04-25T14:39:44;9.57;;;3.60;;
11524;SDS011;5819;49.648;8.330;2023-04-25T14:42:11;6.10;;;3.22;;
11524;SDS011;5819;49.648;8.330;2023-04-25T14:44:39;4.80;;;2.55;;
11524;SDS011;5819;49.648;8.330;2023-04-25T14:47:07;5.95;;;2.38;;
11524;SDS011;5819;49.648;8.330;2023-04-25T14:49:35;5.03;;;2.92;;
11524;SDS011;5819;49.648;8.330;2023-04-25T14:52:03;4.47;;;2.60;;
11524;SDS011;5819;49.648;8.330;2023-04-25T14:54:32;8.38;;;3.50;;
11524;SDS011;5819;49.648;8.330;2023-04-25T14:57:00;5.47;;;2.58;;
11524;SDS011;5819;49.648;8.330;2023-04-25T14:59:29;4.45;;;2.47;;
11524;SDS011;5819;49.648;8.330;2023-04-25T15:01:57;6.05;;;2.95;;
11524;SDS011;5819;49.648;8.330;2023-04-25T15:04:25;5.85;;;3.22;;
11524;SDS011;5819;49.648;8.330;2023-04-25T15:06:53;7.45;;;3.42;;
11524;SDS011;5819;49.648;8.330;2023-04-25T15:09:21;9.80;;;3.63;;
11524;SDS011;5819;49.648;8.330;2023-04-25T15:11:51;7.10;;;3.10;;
11524;SDS011;5819;49.648;8.330;2023-04-25T15:14:19;9.50;;;3.67;;
11524;SDS011;5819;49.648;8.330;2023-04-25T15:16:48;4.90;;;2.67;;
11524;SDS011;5819;49.648;8.330;2023-04-25T15:19:16;6.22;;;3.30;;
11524;SDS011;5819;49.648;8.330;2023-04-25T15:21:43;10.35;;;3.63;;